This is the latest recevied weather packets stored in our database for station/object SP8IZA-1. If no packets are shown the sender has not sent any weather packets the latest 1 day(s).
| Time | Temp. | Humidity | Pressure | Rain* | Wind** | Luminosity | Snow |
|---|---|---|---|---|---|---|---|
| 1836274737 | 11.11° C | 44% | 1022.1 hPa | - | 0 m/s | - | - |
| 1836274437 | 11.11° C | 44% | 1022.2 hPa | - | 0 m/s | - | - |
| 1836274287 | 11.11° C | 44% | 1022.1 hPa | - | 0 m/s | - | - |
| 1836274136 | 11.11° C | 44% | 1022.3 hPa | - | 0 m/s | - | - |
| 1778018532 | 15° C | 42% | 1004.4 hPa | - | 0 m/s | - | - |
| 1778018232 | 15.56° C | 41% | 1004.4 hPa | - | 0 m/s | - | - |
| 1778017931 | 16.11° C | 41% | 1004.4 hPa | - | 0 m/s | - | - |
| 1778017631 | 16.11° C | 41% | 1004.4 hPa | - | 0 m/s | - | - |
| 1778017330 | 16.11° C | 41% | 1004.3 hPa | - | 0 m/s | - | - |
| 1778017030 | 16.11° C | 41% | 1004.4 hPa | - | 0 m/s | - | - |
| 1778016729 | 16.11° C | 41% | 1004.3 hPa | - | 0 m/s | - | - |
| 1778016429 | 16.11° C | 41% | 1004.3 hPa | - | 0 m/s | - | - |
| 1778016128 | 16.11° C | 41% | 1004.2 hPa | - | 0 m/s | - | - |
| 1778015828 | 16.11° C | 41% | 1004.2 hPa | - | 0 m/s | - | - |
| 1778015527 | 16.11° C | 41% | 1004.2 hPa | - | 0 m/s | - | - |
| 1778015227 | 16.11° C | 41% | 1004.2 hPa | - | 0 m/s | - | - |
| 1778014926 | 16.67° C | 41% | 1004.3 hPa | - | 0 m/s | - | - |
| 1778014626 | 16.11° C | 41% | 1004.3 hPa | - | 0 m/s | - | - |
| 1778014325 | 16.11° C | 41% | 1004.2 hPa | - | 0 m/s | - | - |
| 1778014025 | 16.11° C | 41% | 1004.2 hPa | - | 0 m/s | - | - |
| 1778013724 | 16.11° C | 41% | 1004.2 hPa | - | 0 m/s | - | - |
| 1778013424 | 16.11° C | 41% | 1004.2 hPa | - | 0 m/s | - | - |
| 1778013123 | 16.11° C | 41% | 1004.2 hPa | - | 0 m/s | - | - |
| 1778012823 | 16.11° C | 41% | 1004.2 hPa | - | 0 m/s | - | - |
| 1778012522 | 16.11° C | 41% | 1004.2 hPa | - | 0 m/s | - | - |
* Rain since midnight (hover to see other rain measurements)
** Current wind speed in m/s (hover to see current wind gust speed)